sensor_id;sensor_type;location;lat;lon;timestamp;pressure;altitude;pressure_sealevel;temperature;humidity
40372;BME280;28564;53.346;-6.554;2024-03-07T00:00:32;101119.49;;;11.80;44.98
40372;BME280;28564;53.346;-6.554;2024-03-07T00:02:59;101117.28;;;11.81;45.02
40372;BME280;28564;53.346;-6.554;2024-03-07T00:05:26;101118.72;;;11.81;45.05
40372;BME280;28564;53.346;-6.554;2024-03-07T00:07:53;101118.14;;;11.78;45.12
40372;BME280;28564;53.346;-6.554;2024-03-07T00:10:21;101114.57;;;11.49;45.24
40372;BME280;28564;53.346;-6.554;2024-03-07T00:12:48;101119.88;;;11.64;45.35
40372;BME280;28564;53.346;-6.554;2024-03-07T00:15:15;101120.45;;;11.32;45.54
40372;BME280;28564;53.346;-6.554;2024-03-07T00:17:42;101125.59;;;11.46;45.82
40372;BME280;28564;53.346;-6.554;2024-03-07T00:20:10;101124.24;;;11.43;46.10
40372;BME280;28564;53.346;-6.554;2024-03-07T00:22:38;101124.58;;;11.63;46.20
40372;BME280;28564;53.346;-6.554;2024-03-07T00:25:06;101120.48;;;11.41;46.36
40372;BME280;28564;53.346;-6.554;2024-03-07T00:27:34;101118.08;;;11.63;46.47
40372;BME280;28564;53.346;-6.554;2024-03-07T00:30:01;101118.11;;;11.51;46.35
40372;BME280;28564;53.346;-6.554;2024-03-07T00:32:28;101111.83;;;11.50;46.34
40372;BME280;28564;53.346;-6.554;2024-03-07T00:34:55;101108.94;;;11.67;46.36
40372;BME280;28564;53.346;-6.554;2024-03-07T00:37:23;101109.49;;;11.40;46.50
40372;BME280;28564;53.346;-6.554;2024-03-07T00:39:50;101108.80;;;11.39;46.55
40372;BME280;28564;53.346;-6.554;2024-03-07T00:42:17;101111.29;;;11.63;46.42
40372;BME280;28564;53.346;-6.554;2024-03-07T00:44:44;101110.44;;;11.61;46.41
40372;BME280;28564;53.346;-6.554;2024-03-07T00:47:12;101109.13;;;11.43;46.35
40372;BME280;28564;53.346;-6.554;2024-03-07T00:49:39;101105.68;;;11.45;46.33
40372;BME280;28564;53.346;-6.554;2024-03-07T00:52:06;101108.57;;;11.66;46.38
40372;BME280;28564;53.346;-6.554;2024-03-07T00:54:34;101108.39;;;11.42;46.44
40372;BME280;28564;53.346;-6.554;2024-03-07T00:57:01;101110.54;;;11.44;46.36
40372;BME280;28564;53.346;-6.554;2024-03-07T00:59:28;101113.86;;;11.39;46.52
40372;BME280;28564;53.346;-6.554;2024-03-07T01:01:56;101118.22;;;11.35;46.65
40372;BME280;28564;53.346;-6.554;2024-03-07T01:04:23;101114.91;;;11.34;46.76
40372;BME280;28564;53.346;-6.554;2024-03-07T01:06:50;101113.58;;;11.39;46.71
40372;BME280;28564;53.346;-6.554;2024-03-07T01:09:17;101116.61;;;11.41;46.73
40372;BME280;28564;53.346;-6.554;2024-03-07T01:11:45;101113.23;;;11.43;46.70
40372;BME280;28564;53.346;-6.554;2024-03-07T01:14:12;101113.91;;;11.45;46.53
40372;BME280;28564;53.346;-6.554;2024-03-07T01:16:39;101119.87;;;11.36;46.55
40372;BME280;28564;53.346;-6.554;2024-03-07T01:19:07;101115.06;;;11.24;46.68
40372;BME280;28564;53.346;-6.554;2024-03-07T01:21:35;101118.25;;;11.20;46.69
40372;BME280;28564;53.346;-6.554;2024-03-07T01:24:03;101117.89;;;11.29;46.85
40372;BME280;28564;53.346;-6.554;2024-03-07T01:26:31;101117.63;;;11.26;46.91
40372;BME280;28564;53.346;-6.554;2024-03-07T01:28:58;101121.84;;;11.20;47.02
40372;BME280;28564;53.346;-6.554;2024-03-07T01:31:25;101120.26;;;10.99;47.07
40372;BME280;28564;53.346;-6.554;2024-03-07T01:33:54;101120.10;;;11.06;46.90
40372;BME280;28564;53.346;-6.554;2024-03-07T01:36:21;101112.85;;;11.13;46.83
40372;BME280;28564;53.346;-6.554;2024-03-07T01:38:48;101111.41;;;11.40;46.61
40372;BME280;28564;53.346;-6.554;2024-03-07T01:41:16;101116.68;;;11.22;46.51
40372;BME280;28564;53.346;-6.554;2024-03-07T01:43:43;101112.34;;;11.24;46.47
40372;BME280;28564;53.346;-6.554;2024-03-07T01:46:11;101115.65;;;11.22;46.42
40372;BME280;28564;53.346;-6.554;2024-03-07T01:48:38;101113.95;;;11.18;46.42
40372;BME280;28564;53.346;-6.554;2024-03-07T01:51:05;101111.80;;;11.18;46.43
40372;BME280;28564;53.346;-6.554;2024-03-07T01:53:33;101108.05;;;11.35;46.52
40372;BME280;28564;53.346;-6.554;2024-03-07T01:56:02;101106.45;;;11.36;46.54
40372;BME280;28564;53.346;-6.554;2024-03-07T01:58:30;101107.72;;;11.19;46.41
40372;BME280;28564;53.346;-6.554;2024-03-07T02:00:58;101110.37;;;11.20;46.37
40372;BME280;28564;53.346;-6.554;2024-03-07T02:03:26;101109.28;;;11.40;46.37
40372;BME280;28564;53.346;-6.554;2024-03-07T02:05:53;101105.72;;;11.20;46.30
40372;BME280;28564;53.346;-6.554;2024-03-07T02:08:20;101112.35;;;11.45;46.29
40372;BME280;28564;53.346;-6.554;2024-03-07T02:10:48;101113.46;;;11.31;46.14
40372;BME280;28564;53.346;-6.554;2024-03-07T02:13:16;101110.16;;;11.30;46.15
40372;BME280;28564;53.346;-6.554;2024-03-07T02:15:43;101106.42;;;11.32;46.20
40372;BME280;28564;53.346;-6.554;2024-03-07T02:18:10;101104.35;;;11.36;46.16
40372;BME280;28564;53.346;-6.554;2024-03-07T02:20:37;101104.04;;;11.35;46.18
40372;BME280;28564;53.346;-6.554;2024-03-07T02:23:05;101105.29;;;11.31;46.22
40372;BME280;28564;53.346;-6.554;2024-03-07T02:25:32;101101.99;;;11.48;46.19
40372;BME280;28564;53.346;-6.554;2024-03-07T02:27:59;101102.92;;;11.15;46.29
40372;BME280;28564;53.346;-6.554;2024-03-07T02:30:26;101099.45;;;11.33;46.31
40372;BME280;28564;53.346;-6.554;2024-03-07T02:32:53;101089.90;;;10.98;46.42
40372;BME280;28564;53.346;-6.554;2024-03-07T02:35:21;101088.77;;;11.10;46.49
40372;BME280;28564;53.346;-6.554;2024-03-07T02:37:48;101095.15;;;10.99;46.56
40372;BME280;28564;53.346;-6.554;2024-03-07T02:40:15;101093.27;;;10.90;46.65
40372;BME280;28564;53.346;-6.554;2024-03-07T02:42:43;101092.67;;;10.81;46.77
40372;BME280;28564;53.346;-6.554;2024-03-07T02:45:12;101095.26;;;10.75;46.75
40372;BME280;28564;53.346;-6.554;2024-03-07T02:47:39;101098.23;;;10.97;46.77
40372;BME280;28564;53.346;-6.554;2024-03-07T02:50:07;101099.38;;;10.91;46.84
40372;BME280;28564;53.346;-6.554;2024-03-07T02:52:35;101103.70;;;10.88;46.83
40372;BME280;28564;53.346;-6.554;2024-03-07T02:55:02;101102.51;;;10.91;46.86
40372;BME280;28564;53.346;-6.554;2024-03-07T02:57:29;101107.10;;;10.68;46.81
40372;BME280;28564;53.346;-6.554;2024-03-07T02:59:56;101110.35;;;10.77;46.74
40372;BME280;28564;53.346;-6.554;2024-03-07T03:02:23;101108.61;;;10.80;46.56
40372;BME280;28564;53.346;-6.554;2024-03-07T03:04:51;101108.20;;;11.12;46.53
40372;BME280;28564;53.346;-6.554;2024-03-07T03:07:18;101106.15;;;10.93;46.47
40372;BME280;28564;53.346;-6.554;2024-03-07T03:09:45;101105.33;;;10.79;46.45
40372;BME280;28564;53.346;-6.554;2024-03-07T03:12:12;101097.47;;;11.11;46.24
40372;BME280;28564;53.346;-6.554;2024-03-07T03:14:40;101091.71;;;11.12;46.13
40372;BME280;28564;53.346;-6.554;2024-03-07T03:17:07;101094.98;;;11.04;46.02
40372;BME280;28564;53.346;-6.554;2024-03-07T03:19:35;101093.35;;;10.91;46.14
40372;BME280;28564;53.346;-6.554;2024-03-07T03:22:02;101096.16;;;11.10;46.38
40372;BME280;28564;53.346;-6.554;2024-03-07T03:24:29;101094.27;;;10.73;46.53
40372;BME280;28564;53.346;-6.554;2024-03-07T03:26:57;101092.65;;;10.63;46.68
40372;BME280;28564;53.346;-6.554;2024-03-07T03:29:24;101088.56;;;10.58;46.83
40372;BME280;28564;53.346;-6.554;2024-03-07T03:31:51;101088.44;;;10.82;47.03
40372;BME280;28564;53.346;-6.554;2024-03-07T03:34:18;101084.90;;;10.89;47.06
40372;BME280;28564;53.346;-6.554;2024-03-07T03:36:46;101084.51;;;10.74;47.06
40372;BME280;28564;53.346;-6.554;2024-03-07T03:39:13;101083.11;;;10.87;46.99
40372;BME280;28564;53.346;-6.554;2024-03-07T03:41:40;101083.89;;;10.95;46.71
40372;BME280;28564;53.346;-6.554;2024-03-07T03:44:07;101083.81;;;10.81;46.61
40372;BME280;28564;53.346;-6.554;2024-03-07T03:46:35;101079.26;;;11.15;46.46
40372;BME280;28564;53.346;-6.554;2024-03-07T03:49:03;101078.45;;;11.27;46.29
40372;BME280;28564;53.346;-6.554;2024-03-07T03:51:30;101075.18;;;11.13;46.10
40372;BME280;28564;53.346;-6.554;2024-03-07T03:53:57;101076.36;;;11.37;46.06
40372;BME280;28564;53.346;-6.554;2024-03-07T03:56:25;101075.00;;;11.19;45.91
40372;BME280;28564;53.346;-6.554;2024-03-07T03:58:52;101081.49;;;11.43;45.77
40372;BME280;28564;53.346;-6.554;2024-03-07T04:01:19;101086.04;;;11.23;45.84
40372;BME280;28564;53.346;-6.554;2024-03-07T04:03:46;101092.20;;;11.32;45.84
40372;BME280;28564;53.346;-6.554;2024-03-07T04:06:14;101097.69;;;11.43;45.72
40372;BME280;28564;53.346;-6.554;2024-03-07T04:08:41;101100.50;;;11.49;45.51
40372;BME280;28564;53.346;-6.554;2024-03-07T04:11:09;101099.33;;;11.78;45.45
40372;BME280;28564;53.346;-6.554;2024-03-07T04:13:36;101100.98;;;11.15;45.38
40372;BME280;28564;53.346;-6.554;2024-03-07T04:16:03;101105.08;;;11.78;45.25
40372;BME280;28564;53.346;-6.554;2024-03-07T04:18:31;101103.34;;;11.86;45.17
40372;BME280;28564;53.346;-6.554;2024-03-07T04:20:58;101103.53;;;11.96;45.09
40372;BME280;28564;53.346;-6.554;2024-03-07T04:23:26;101105.34;;;12.03;45.00
40372;BME280;28564;53.346;-6.554;2024-03-07T04:25:54;101104.45;;;12.09;44.87
40372;BME280;28564;53.346;-6.554;2024-03-07T04:28:21;101105.83;;;11.83;44.69
40372;BME280;28564;53.346;-6.554;2024-03-07T04:30:48;101105.28;;;11.76;44.73
40372;BME280;28564;53.346;-6.554;2024-03-07T04:33:15;101101.18;;;11.46;44.76
40372;BME280;28564;53.346;-6.554;2024-03-07T04:35:42;101105.21;;;11.85;44.70
40372;BME280;28564;53.346;-6.554;2024-03-07T04:38:10;101108.34;;;11.78;44.80
40372;BME280;28564;53.346;-6.554;2024-03-07T04:40:37;101113.52;;;11.75;44.89
40372;BME280;28564;53.346;-6.554;2024-03-07T04:43:04;101113.96;;;11.54;44.97
40372;BME280;28564;53.346;-6.554;2024-03-07T04:45:32;101120.67;;;11.81;44.96
40372;BME280;28564;53.346;-6.554;2024-03-07T04:48:00;101123.75;;;11.83;44.88
40372;BME280;28564;53.346;-6.554;2024-03-07T04:50:26;101126.47;;;11.62;44.75
40372;BME280;28564;53.346;-6.554;2024-03-07T04:52:54;101125.76;;;11.78;44.72
40372;BME280;28564;53.346;-6.554;2024-03-07T04:55:21;101125.43;;;11.73;44.30
40372;BME280;28564;53.346;-6.554;2024-03-07T04:57:48;101123.29;;;11.52;44.05
40372;BME280;28564;53.346;-6.554;2024-03-07T05:00:16;101119.55;;;11.26;44.11
40372;BME280;28564;53.346;-6.554;2024-03-07T05:02:44;101121.73;;;11.01;44.41
40372;BME280;28564;53.346;-6.554;2024-03-07T05:05:11;101123.03;;;11.01;44.60
40372;BME280;28564;53.346;-6.554;2024-03-07T05:07:38;101121.61;;;10.59;44.78
40372;BME280;28564;53.346;-6.554;2024-03-07T05:10:07;101123.15;;;10.69;44.99
40372;BME280;28564;53.346;-6.554;2024-03-07T05:12:34;101120.91;;;10.89;45.20
40372;BME280;28564;53.346;-6.554;2024-03-07T05:15:02;101121.08;;;10.89;45.34
40372;BME280;28564;53.346;-6.554;2024-03-07T05:17:29;101118.48;;;10.61;45.29
40372;BME280;28564;53.346;-6.554;2024-03-07T05:19:56;101122.16;;;10.35;45.23
40372;BME280;28564;53.346;-6.554;2024-03-07T05:22:23;101128.91;;;10.50;45.28
40372;BME280;28564;53.346;-6.554;2024-03-07T05:24:51;101129.35;;;10.44;45.40
40372;BME280;28564;53.346;-6.554;2024-03-07T05:27:18;101134.79;;;10.62;45.47
40372;BME280;28564;53.346;-6.554;2024-03-07T05:29:45;101134.09;;;10.54;45.55
40372;BME280;28564;53.346;-6.554;2024-03-07T05:32:28;101137.98;;;10.50;45.62
40372;BME280;28564;53.346;-6.554;2024-03-07T05:34:55;101134.31;;;10.44;45.64
40372;BME280;28564;53.346;-6.554;2024-03-07T05:37:22;101134.19;;;10.30;45.80
40372;BME280;28564;53.346;-6.554;2024-03-07T05:39:50;101139.97;;;10.21;45.94
40372;BME280;28564;53.346;-6.554;2024-03-07T05:42:18;101138.87;;;10.16;46.18
40372;BME280;28564;53.346;-6.554;2024-03-07T05:44:46;101140.09;;;10.10;46.36
40372;BME280;28564;53.346;-6.554;2024-03-07T05:47:13;101141.77;;;10.08;46.54
40372;BME280;28564;53.346;-6.554;2024-03-07T05:49:41;101141.33;;;10.11;46.73
40372;BME280;28564;53.346;-6.554;2024-03-07T05:52:08;101140.55;;;10.21;46.76
40372;BME280;28564;53.346;-6.554;2024-03-07T05:54:35;101140.38;;;10.30;46.78
40372;BME280;28564;53.346;-6.554;2024-03-07T05:57:03;101143.06;;;10.45;46.74
40372;BME280;28564;53.346;-6.554;2024-03-07T05:59:31;101143.24;;;10.61;46.64
40372;BME280;28564;53.346;-6.554;2024-03-07T06:01:58;101138.09;;;10.46;46.41
40372;BME280;28564;53.346;-6.554;2024-03-07T06:04:26;101137.52;;;10.81;46.33
40372;BME280;28564;53.346;-6.554;2024-03-07T06:06:53;101130.57;;;10.59;46.15
40372;BME280;28564;53.346;-6.554;2024-03-07T06:09:20;101126.03;;;10.60;46.08
40372;BME280;28564;53.346;-6.554;2024-03-07T06:11:49;101125.89;;;10.85;46.02
40372;BME280;28564;53.346;-6.554;2024-03-07T06:14:16;101125.53;;;10.44;46.18
40372;BME280;28564;53.346;-6.554;2024-03-07T06:16:43;101130.28;;;10.39;46.19
40372;BME280;28564;53.346;-6.554;2024-03-07T06:19:11;101133.98;;;10.52;46.23
40372;BME280;28564;53.346;-6.554;2024-03-07T06:21:39;101135.46;;;10.37;46.30
40372;BME280;28564;53.346;-6.554;2024-03-07T06:24:08;101137.64;;;10.23;46.48
40372;BME280;28564;53.346;-6.554;2024-03-07T06:26:36;101138.82;;;10.11;46.66
40372;BME280;28564;53.346;-6.554;2024-03-07T06:29:04;101141.61;;;9.99;46.78
40372;BME280;28564;53.346;-6.554;2024-03-07T06:31:31;101135.89;;;9.87;46.93
40372;BME280;28564;53.346;-6.554;2024-03-07T06:33:58;101135.50;;;9.78;46.98
40372;BME280;28564;53.346;-6.554;2024-03-07T06:36:25;101136.11;;;9.72;47.04
40372;BME280;28564;53.346;-6.554;2024-03-07T06:38:53;101140.06;;;10.15;47.05
40372;BME280;28564;53.346;-6.554;2024-03-07T06:41:20;101146.48;;;9.83;47.06
40372;BME280;28564;53.346;-6.554;2024-03-07T06:43:47;101148.08;;;10.06;47.07
40372;BME280;28564;53.346;-6.554;2024-03-07T06:46:14;101148.46;;;9.77;47.13
40372;BME280;28564;53.346;-6.554;2024-03-07T06:48:42;101147.37;;;9.72;47.16
40372;BME280;28564;53.346;-6.554;2024-03-07T06:51:09;101152.69;;;9.98;47.15
40372;BME280;28564;53.346;-6.554;2024-03-07T06:53:36;101150.26;;;9.74;47.19
40372;BME280;28564;53.346;-6.554;2024-03-07T06:56:04;101148.55;;;9.25;47.23
40372;BME280;28564;53.346;-6.554;2024-03-07T06:58:32;101153.43;;;10.08;47.11
40372;BME280;28564;53.346;-6.554;2024-03-07T07:01:00;101153.59;;;10.03;47.13
40372;BME280;28564;53.346;-6.554;2024-03-07T07:03:27;101157.26;;;9.99;47.14
40372;BME280;28564;53.346;-6.554;2024-03-07T07:05:55;101158.50;;;9.41;47.21
40372;BME280;28564;53.346;-6.554;2024-03-07T07:08:22;101162.55;;;9.68;47.10
40372;BME280;28564;53.346;-6.554;2024-03-07T07:10:49;101161.45;;;9.71;47.02
40372;BME280;28564;53.346;-6.554;2024-03-07T07:13:16;101163.39;;;9.95;47.01
40372;BME280;28564;53.346;-6.554;2024-03-07T07:15:44;101166.18;;;9.87;47.08
40372;BME280;28564;53.346;-6.554;2024-03-07T07:18:11;101167.66;;;9.55;47.11
40372;BME280;28564;53.346;-6.554;2024-03-07T07:20:39;101168.72;;;9.51;47.14
40372;BME280;28564;53.346;-6.554;2024-03-07T07:23:06;101163.54;;;9.72;47.19
40372;BME280;28564;53.346;-6.554;2024-03-07T07:25:34;101165.55;;;9.71;47.21
40372;BME280;28564;53.346;-6.554;2024-03-07T07:28:03;101163.73;;;9.68;47.27
40372;BME280;28564;53.346;-6.554;2024-03-07T07:30:30;101163.02;;;9.39;47.29
40372;BME280;28564;53.346;-6.554;2024-03-07T07:32:57;101164.75;;;9.66;47.32
40372;BME280;28564;53.346;-6.554;2024-03-07T07:35:25;101164.63;;;9.65;47.39
40372;BME280;28564;53.346;-6.554;2024-03-07T07:37:52;101163.45;;;9.63;47.41
40372;BME280;28564;53.346;-6.554;2024-03-07T07:40:20;101164.06;;;9.62;47.49
40372;BME280;28564;53.346;-6.554;2024-03-07T07:42:49;101173.70;;;9.61;47.51
40372;BME280;28564;53.346;-6.554;2024-03-07T07:45:17;101167.72;;;9.37;47.50
40372;BME280;28564;53.346;-6.554;2024-03-07T07:47:46;101171.62;;;9.63;47.55
40372;BME280;28564;53.346;-6.554;2024-03-07T07:50:19;101167.35;;;9.62;47.56
40372;BME280;28564;53.346;-6.554;2024-03-07T07:52:48;101175.06;;;9.62;47.57
40372;BME280;28564;53.346;-6.554;2024-03-07T07:55:17;101169.51;;;9.63;47.56
40372;BME280;28564;53.346;-6.554;2024-03-07T07:57:45;101164.15;;;9.63;47.61
40372;BME280;28564;53.346;-6.554;2024-03-07T08:00:14;101166.41;;;9.68;47.65
40372;BME280;28564;53.346;-6.554;2024-03-07T08:02:41;101168.04;;;9.72;47.67
40372;BME280;28564;53.346;-6.554;2024-03-07T08:05:09;101165.48;;;9.83;47.65
40372;BME280;28564;53.346;-6.554;2024-03-07T08:07:36;101169.21;;;9.64;47.62
40372;BME280;28564;53.346;-6.554;2024-03-07T08:10:04;101167.03;;;9.95;47.58
40372;BME280;28564;53.346;-6.554;2024-03-07T08:12:32;101168.17;;;9.72;47.55
40372;BME280;28564;53.346;-6.554;2024-03-07T08:14:58;101170.59;;;9.56;47.55
40372;BME280;28564;53.346;-6.554;2024-03-07T08:17:26;101171.07;;;10.16;47.56
40372;BME280;28564;53.346;-6.554;2024-03-07T08:19:53;101173.64;;;9.89;47.42
40372;BME280;28564;53.346;-6.554;2024-03-07T08:22:20;101170.44;;;10.12;47.09
40372;BME280;28564;53.346;-6.554;2024-03-07T08:24:48;101171.39;;;10.27;46.95
40372;BME280;28564;53.346;-6.554;2024-03-07T08:27:15;101168.00;;;10.47;46.81
40372;BME280;28564;53.346;-6.554;2024-03-07T08:29:43;101164.08;;;10.70;46.61
40372;BME280;28564;53.346;-6.554;2024-03-07T08:32:10;101159.82;;;10.90;46.15
40372;BME280;28564;53.346;-6.554;2024-03-07T08:34:37;101164.17;;;10.74;45.62
40372;BME280;28564;53.346;-6.554;2024-03-07T08:37:04;101156.61;;;10.56;45.63
40372;BME280;28564;53.346;-6.554;2024-03-07T08:39:32;101159.76;;;10.65;45.56
40372;BME280;28564;53.346;-6.554;2024-03-07T08:41:59;101164.42;;;11.23;45.21
40372;BME280;28564;53.346;-6.554;2024-03-07T08:44:26;101164.99;;;10.82;45.06
40372;BME280;28564;53.346;-6.554;2024-03-07T08:46:53;101167.20;;;10.96;44.88
40372;BME280;28564;53.346;-6.554;2024-03-07T08:49:21;101164.02;;;11.14;44.58
40372;BME280;28564;53.346;-6.554;2024-03-07T08:51:53;101164.94;;;11.30;44.48
40372;BME280;28564;53.346;-6.554;2024-03-07T08:54:20;101166.26;;;11.64;43.94
40372;BME280;28564;53.346;-6.554;2024-03-07T08:56:47;101162.28;;;11.53;43.59
40372;BME280;28564;53.346;-6.554;2024-03-07T08:59:14;101166.29;;;11.72;43.34
40372;BME280;28564;53.346;-6.554;2024-03-07T09:01:42;101164.67;;;11.41;43.09
40372;BME280;28564;53.346;-6.554;2024-03-07T09:04:14;101164.87;;;11.36;43.33
40372;BME280;28564;53.346;-6.554;2024-03-07T09:06:41;101163.30;;;11.43;43.38
40372;BME280;28564;53.346;-6.554;2024-03-07T09:09:08;101165.57;;;11.59;43.14
40372;BME280;28564;53.346;-6.554;2024-03-07T09:11:35;101165.10;;;11.68;42.99
40372;BME280;28564;53.346;-6.554;2024-03-07T09:14:03;101171.22;;;11.73;42.91
40372;BME280;28564;53.346;-6.554;2024-03-07T09:16:30;101167.95;;;11.84;43.00
40372;BME280;28564;53.346;-6.554;2024-03-07T09:18:57;101167.53;;;12.04;42.95
40372;BME280;28564;53.346;-6.554;2024-03-07T09:21:24;101172.10;;;11.97;42.55
40372;BME280;28564;53.346;-6.554;2024-03-07T09:23:51;101172.26;;;11.83;42.16
40372;BME280;28564;53.346;-6.554;2024-03-07T09:26:18;101161.36;;;12.11;42.29
40372;BME280;28564;53.346;-6.554;2024-03-07T09:28:46;101166.39;;;11.98;42.29
40372;BME280;28564;53.346;-6.554;2024-03-07T09:31:15;101170.58;;;12.72;42.36
40372;BME280;28564;53.346;-6.554;2024-03-07T09:33:42;101174.36;;;12.39;41.30
40372;BME280;28564;53.346;-6.554;2024-03-07T09:36:09;101169.66;;;12.26;41.28
40372;BME280;28564;53.346;-6.554;2024-03-07T09:38:37;101172.25;;;12.20;41.48
40372;BME280;28564;53.346;-6.554;2024-03-07T09:41:05;101172.47;;;12.60;41.80
40372;BME280;28564;53.346;-6.554;2024-03-07T09:43:33;101175.58;;;12.62;41.32
40372;BME280;28564;53.346;-6.554;2024-03-07T09:46:03;101175.68;;;12.73;41.07
40372;BME280;28564;53.346;-6.554;2024-03-07T09:48:32;101172.52;;;12.63;41.02
40372;BME280;28564;53.346;-6.554;2024-03-07T09:51:00;101173.40;;;12.44;41.17
40372;BME280;28564;53.346;-6.554;2024-03-07T09:53:29;101174.47;;;12.40;41.56
40372;BME280;28564;53.346;-6.554;2024-03-07T09:55:57;101175.56;;;12.38;41.44
40372;BME280;28564;53.346;-6.554;2024-03-07T09:58:26;101169.27;;;12.25;41.40
40372;BME280;28564;53.346;-6.554;2024-03-07T10:03:52;101166.28;;;12.48;40.99
40372;BME280;28564;53.346;-6.554;2024-03-07T10:06:22;101167.12;;;12.65;40.82
40372;BME280;28564;53.346;-6.554;2024-03-07T10:08:50;101165.68;;;12.45;41.21
40372;BME280;28564;53.346;-6.554;2024-03-07T10:11:17;101166.47;;;12.38;41.42
40372;BME280;28564;53.346;-6.554;2024-03-07T10:13:45;101168.11;;;12.14;41.37
40372;BME280;28564;53.346;-6.554;2024-03-07T10:16:12;101167.98;;;12.03;41.84
40372;BME280;28564;53.346;-6.554;2024-03-07T10:18:42;101169.75;;;12.29;41.94
40372;BME280;28564;53.346;-6.554;2024-03-07T10:21:09;101167.22;;;12.33;42.15
40372;BME280;28564;53.346;-6.554;2024-03-07T10:23:36;101182.19;;;12.27;41.45
40372;BME280;28564;53.346;-6.554;2024-03-07T10:26:04;101180.75;;;12.29;41.43
40372;BME280;28564;53.346;-6.554;2024-03-07T10:28:32;101181.76;;;12.72;41.58
40372;BME280;28564;53.346;-6.554;2024-03-07T10:30:59;101180.76;;;12.64;41.49
40372;BME280;28564;53.346;-6.554;2024-03-07T10:33:27;101177.63;;;12.99;40.36
40372;BME280;28564;53.346;-6.554;2024-03-07T10:35:55;101178.50;;;12.75;40.13
40372;BME280;28564;53.346;-6.554;2024-03-07T10:38:23;101174.34;;;13.31;40.25
40372;BME280;28564;53.346;-6.554;2024-03-07T10:40:53;101181.17;;;13.29;39.76
40372;BME280;28564;53.346;-6.554;2024-03-07T10:43:22;101171.50;;;13.39;39.59
40372;BME280;28564;53.346;-6.554;2024-03-07T10:45:49;101169.15;;;13.38;39.91
40372;BME280;28564;53.346;-6.554;2024-03-07T10:48:19;101167.96;;;13.66;39.54
40372;BME280;28564;53.346;-6.554;2024-03-07T10:50:55;101167.83;;;13.62;39.53
40372;BME280;28564;53.346;-6.554;2024-03-07T10:53:34;101168.32;;;13.71;39.51
40372;BME280;28564;53.346;-6.554;2024-03-07T10:56:21;101160.39;;;13.77;38.80
40372;BME280;28564;53.346;-6.554;2024-03-07T10:58:58;101158.74;;;13.73;38.72
40372;BME280;28564;53.346;-6.554;2024-03-07T11:01:27;101157.97;;;13.59;39.01
40372;BME280;28564;53.346;-6.554;2024-03-07T11:03:57;101158.74;;;13.84;39.09
40372;BME280;28564;53.346;-6.554;2024-03-07T11:06:25;101159.60;;;13.52;38.98
40372;BME280;28564;53.346;-6.554;2024-03-07T11:08:53;101161.24;;;14.04;39.15
40372;BME280;28564;53.346;-6.554;2024-03-07T11:11:22;101160.25;;;14.13;38.92
40372;BME280;28564;53.346;-6.554;2024-03-07T11:13:49;101163.41;;;14.16;38.78
40372;BME280;28564;53.346;-6.554;2024-03-07T11:16:17;101162.96;;;15.05;37.98
40372;BME280;28564;53.346;-6.554;2024-03-07T11:19:18;101158.58;;;14.68;37.09
40372;BME280;28564;53.346;-6.554;2024-03-07T11:21:46;101159.32;;;14.59;36.76
40372;BME280;28564;53.346;-6.554;2024-03-07T11:24:23;101163.48;;;14.55;37.00
40372;BME280;28564;53.346;-6.554;2024-03-07T11:26:52;101162.10;;;14.53;36.75
40372;BME280;28564;53.346;-6.554;2024-03-07T11:29:52;101155.41;;;14.52;37.20
40372;BME280;28564;53.346;-6.554;2024-03-07T11:32:19;101154.47;;;14.54;36.83
40372;BME280;28564;53.346;-6.554;2024-03-07T11:34:47;101159.96;;;14.47;36.60
40372;BME280;28564;53.346;-6.554;2024-03-07T11:37:19;101149.33;;;14.17;36.28
40372;BME280;28564;53.346;-6.554;2024-03-07T11:39:47;101154.55;;;14.36;36.74
40372;BME280;28564;53.346;-6.554;2024-03-07T11:42:31;101145.24;;;14.47;37.02
40372;BME280;28564;53.346;-6.554;2024-03-07T11:44:59;101146.35;;;14.26;36.68
40372;BME280;28564;53.346;-6.554;2024-03-07T11:47:34;101141.86;;;14.14;36.43
40372;BME280;28564;53.346;-6.554;2024-03-07T11:50:02;101139.68;;;14.36;36.72
40372;BME280;28564;53.346;-6.554;2024-03-07T11:52:29;101143.61;;;14.02;37.37
40372;BME280;28564;53.346;-6.554;2024-03-07T11:54:56;101140.28;;;13.86;37.46
40372;BME280;28564;53.346;-6.554;2024-03-07T11:57:24;101144.63;;;14.30;37.19
40372;BME280;28564;53.346;-6.554;2024-03-07T11:59:51;101143.40;;;14.18;37.50
40372;BME280;28564;53.346;-6.554;2024-03-07T12:02:19;101141.91;;;14.13;37.20
40372;BME280;28564;53.346;-6.554;2024-03-07T12:04:52;101139.76;;;14.02;37.16
40372;BME280;28564;53.346;-6.554;2024-03-07T12:07:19;101132.89;;;14.41;37.12
40372;BME280;28564;53.346;-6.554;2024-03-07T12:09:46;101134.47;;;14.46;37.42
40372;BME280;28564;53.346;-6.554;2024-03-07T12:12:13;101125.92;;;14.30;37.39
40372;BME280;28564;53.346;-6.554;2024-03-07T12:14:41;101128.22;;;14.37;37.30
40372;BME280;28564;53.346;-6.554;2024-03-07T12:17:08;101127.03;;;14.21;36.99
40372;BME280;28564;53.346;-6.554;2024-03-07T12:19:36;101123.93;;;14.11;36.82
40372;BME280;28564;53.346;-6.554;2024-03-07T12:22:03;101124.64;;;14.38;37.24
40372;BME280;28564;53.346;-6.554;2024-03-07T12:24:34;101118.29;;;13.95;37.36
40372;BME280;28564;53.346;-6.554;2024-03-07T12:27:06;101113.44;;;13.85;37.59
40372;BME280;28564;53.346;-6.554;2024-03-07T12:29:33;101115.30;;;14.25;37.86
40372;BME280;28564;53.346;-6.554;2024-03-07T12:32:01;101114.82;;;13.97;37.39
40372;BME280;28564;53.346;-6.554;2024-03-07T12:34:28;101113.65;;;14.27;37.05
40372;BME280;28564;53.346;-6.554;2024-03-07T12:36:55;101108.78;;;13.71;37.39
40372;BME280;28564;53.346;-6.554;2024-03-07T12:39:22;101107.57;;;13.74;37.32
40372;BME280;28564;53.346;-6.554;2024-03-07T12:41:50;101104.41;;;13.80;37.83
40372;BME280;28564;53.346;-6.554;2024-03-07T12:44:17;101104.50;;;13.64;37.88
40372;BME280;28564;53.346;-6.554;2024-03-07T12:46:46;101103.88;;;13.65;38.02